createdAt,value
2019-04-10T00:03:43.752Z,53.80
2019-04-10T00:08:46.301Z,53.73
2019-04-10T00:13:49.055Z,53.90
2019-04-10T00:18:51.239Z,53.87
2019-04-10T00:23:53.206Z,54.08
2019-04-10T00:28:56.044Z,54.21
2019-04-10T00:33:58.983Z,54.30
2019-04-10T00:39:02.271Z,54.37
2019-04-10T00:44:04.379Z,54.44
2019-04-10T00:49:07.184Z,54.56
2019-04-10T00:54:09.850Z,54.42
2019-04-10T00:59:12.175Z,54.43
2019-04-10T01:04:14.392Z,54.54
2019-04-10T01:09:17.316Z,54.57
2019-04-10T01:14:19.595Z,54.48
2019-04-10T01:19:21.738Z,54.70
2019-04-10T01:24:23.796Z,54.89
2019-04-10T01:29:25.764Z,54.87
2019-04-10T01:34:27.725Z,55.08
2019-04-10T01:39:31.111Z,55.08
2019-04-10T01:44:33.224Z,55.10
2019-04-10T01:49:35.337Z,55.20
2019-04-10T01:54:37.503Z,55.25
2019-04-10T01:59:40.673Z,55.42
2019-04-10T02:04:44.852Z,55.42
2019-04-10T02:09:47.722Z,55.46
2019-04-10T02:14:49.890Z,55.64
2019-04-10T02:19:52.077Z,55.82
2019-04-10T02:24:54.160Z,55.94
2019-04-10T02:29:56.154Z,55.99
2019-04-10T02:34:58.314Z,56.14
2019-04-10T02:40:02.924Z,56.10
2019-04-10T02:45:06.002Z,56.20
2019-04-10T02:50:10.434Z,56.14
2019-04-10T02:55:14.328Z,56.13
2019-04-10T03:00:18.057Z,56.14
2019-04-10T03:05:22.984Z,56.13
2019-04-10T03:10:33.497Z,56.15
2019-04-10T03:15:29.669Z,56.51
2019-04-10T03:20:32.260Z,56.67
2019-04-10T03:25:35.160Z,56.88
2019-04-10T03:30:39.411Z,56.90
2019-04-10T03:35:45.199Z,56.90
2019-04-10T03:40:48.050Z,56.84
2019-04-10T03:45:50.131Z,56.75
2019-04-10T03:50:52.254Z,56.93
2019-04-10T03:55:57.094Z,57.04
2019-04-10T04:00:59.254Z,57.00
2019-04-10T04:06:01.606Z,56.98
2019-04-10T04:11:04.847Z,57.11
2019-04-10T04:16:07.107Z,57.12
2019-04-10T04:21:09.732Z,57.18
2019-04-10T04:26:12.689Z,57.36
2019-04-10T04:31:15.965Z,57.52
2019-04-10T04:36:18.321Z,57.48
2019-04-10T04:41:20.396Z,57.65
2019-04-10T04:46:22.449Z,57.68
2019-04-10T04:51:25.832Z,57.79
2019-04-10T04:56:28.327Z,57.79
2019-04-10T05:01:30.410Z,57.63
2019-04-10T05:06:32.961Z,57.56
2019-04-10T05:11:36.375Z,57.50
2019-04-10T05:16:39.525Z,57.62
2019-04-10T05:21:41.709Z,57.52
2019-04-10T05:26:44.807Z,57.27
2019-04-10T05:31:47.163Z,57.11
2019-04-10T05:36:49.261Z,56.83
2019-04-10T05:41:51.299Z,56.59
2019-04-10T05:46:53.454Z,56.37
2019-04-10T05:51:55.659Z,56.01
2019-04-10T05:56:58.980Z,53.45
2019-04-10T06:02:01.184Z,50.49
2019-04-10T06:07:03.235Z,46.85
2019-04-10T06:12:05.862Z,44.40
2019-04-10T06:17:10.073Z,43.16
2019-04-10T06:22:12.773Z,41.70
2019-04-10T06:27:15.056Z,43.09
2019-04-10T06:32:17.119Z,45.20
2019-04-10T06:37:19.203Z,45.86
2019-04-10T06:42:22.475Z,46.66
2019-04-10T06:47:24.924Z,46.10
2019-04-10T06:52:27.079Z,45.90
2019-04-10T06:57:30.286Z,43.76
2019-04-10T07:02:34.597Z,43.62
2019-04-10T07:07:49.878Z,43.32
2019-04-10T07:12:41.628Z,42.66
2019-04-10T07:17:44.763Z,41.88
2019-04-10T07:22:49.352Z,41.19
2019-04-10T07:27:52.357Z,41.40
2019-04-10T07:32:55.135Z,40.70
2019-04-10T07:37:58.462Z,40.30
2019-04-10T07:43:02.137Z,39.84
2019-04-10T07:48:04.519Z,39.21
2019-04-10T07:53:06.957Z,39.10
2019-04-10T07:58:09.031Z,38.89
2019-04-10T08:03:11.103Z,37.62
2019-04-10T08:08:13.223Z,37.19
2019-04-10T08:13:16.145Z,37.15
2019-04-10T08:18:18.969Z,35.96
2019-04-10T08:23:21.811Z,35.98
2019-04-10T08:28:24.211Z,35.12
2019-04-10T08:33:26.114Z,35.09
2019-04-10T08:38:28.284Z,34.48
2019-04-10T08:43:31.266Z,35.23
2019-04-10T08:48:34.666Z,34.75
2019-04-10T08:53:36.865Z,33.91
2019-04-10T08:58:39.157Z,33.77
2019-04-10T09:03:41.352Z,33.97
2019-04-10T09:08:43.686Z,34.46
2019-04-10T09:13:46.447Z,34.29
2019-04-10T09:18:49.496Z,34.52
2019-04-10T09:23:54.402Z,33.58
2019-04-10T09:28:56.983Z,32.95
2019-04-10T09:33:59.267Z,31.80
2019-04-10T09:39:01.328Z,31.20
2019-04-10T09:44:04.531Z,31.78
2019-04-10T09:49:06.983Z,31.57
2019-04-10T09:54:09.890Z,30.98
2019-04-10T09:59:12.117Z,31.44
2019-04-10T10:04:15.353Z,31.86
2019-04-10T10:09:17.697Z,31.88
2019-04-10T10:14:20.887Z,31.58
2019-04-10T10:19:23.743Z,31.31
2019-04-10T10:24:28.781Z,31.09
2019-04-10T10:29:30.983Z,31.65
2019-04-10T10:34:33.034Z,31.25
2019-04-10T10:39:35.081Z,30.99
2019-04-10T10:44:38.346Z,31.08
2019-04-10T10:49:40.502Z,31.16
2019-04-10T10:54:43.246Z,30.75
2019-04-10T10:59:46.055Z,31.01
2019-04-10T11:04:48.498Z,31.15
2019-04-10T11:09:53.134Z,31.38
2019-04-10T11:14:56.258Z,31.06
2019-04-10T11:19:59.496Z,30.61
2019-04-10T11:25:01.762Z,30.54
2019-04-10T11:30:05.441Z,30.37
2019-04-10T11:35:08.038Z,31.05
2019-04-10T11:40:12.203Z,30.73
2019-04-10T11:45:17.091Z,30.54
2019-04-10T11:50:19.472Z,30.53
2019-04-10T11:55:25.796Z,30.28
2019-04-10T12:00:45.361Z,30.15
2019-04-10T12:05:42.099Z,30.56
2019-04-10T12:15:48.505Z,30.80
2019-04-10T12:20:51.531Z,30.94
2019-04-10T12:25:53.790Z,30.66
2019-04-10T12:30:55.872Z,30.96
2019-04-10T12:35:58.248Z,30.98
2019-04-10T12:41:01.349Z,30.89
2019-04-10T12:46:04.562Z,31.05
2019-04-10T12:51:07.700Z,30.97
2019-04-10T12:56:10.250Z,30.74
2019-04-10T13:01:14.251Z,30.68
2019-04-10T13:06:17.867Z,30.65
2019-04-10T13:11:20.495Z,30.92
2019-04-10T13:16:23.842Z,31.14
2019-04-10T13:21:26.398Z,31.08
2019-04-10T13:26:28.758Z,31.20
2019-04-10T13:31:30.793Z,31.07
2019-04-10T13:36:33.002Z,30.92
2019-04-10T13:41:35.079Z,30.88
2019-04-10T13:46:37.288Z,30.81
2019-04-10T13:51:39.378Z,30.95
2019-04-10T13:56:41.467Z,30.99
2019-04-10T14:01:43.947Z,31.30
2019-04-10T14:06:48.813Z,31.19
2019-04-10T14:11:51.260Z,31.18
2019-04-10T14:16:53.613Z,31.17
2019-04-10T14:21:55.734Z,31.03
2019-04-10T14:27:21.436Z,31.16
2019-04-10T14:32:35.965Z,31.32
2019-04-10T14:37:38.128Z,31.27
2019-04-10T14:42:40.349Z,30.86
2019-04-10T14:47:43.443Z,31.02
2019-04-10T14:52:45.741Z,31.18
2019-04-10T14:57:47.801Z,30.92
2019-04-10T15:02:50.713Z,31.22
2019-04-10T15:07:53.280Z,31.05
2019-04-10T15:13:06.747Z,31.05
2019-04-10T15:17:59.498Z,31.36
2019-04-10T15:23:01.558Z,31.16
2019-04-10T15:28:04.346Z,31.25
2019-04-10T15:33:06.766Z,31.06
2019-04-10T15:38:09.460Z,30.83
2019-04-10T15:43:12.608Z,30.99
2019-04-10T15:48:14.899Z,31.24
2019-04-10T15:53:18.026Z,30.88
2019-04-10T15:58:21.416Z,31.10
2019-04-10T16:03:23.978Z,30.89
2019-04-10T16:08:28.155Z,30.83
2019-04-10T16:13:38.840Z,30.87
2019-04-10T16:18:41.717Z,30.76
2019-04-10T16:23:48.194Z,30.67
2019-04-10T16:28:51.371Z,30.88
2019-04-10T16:33:54.613Z,30.71
2019-04-10T16:38:57.441Z,30.82
2019-04-10T16:44:00.534Z,30.88
2019-04-10T16:49:02.752Z,31.16
2019-04-10T16:54:04.841Z,31.13
2019-04-10T16:59:06.876Z,31.17
2019-04-10T17:04:09.124Z,31.32
2019-04-10T17:09:15.221Z,31.65
2019-04-10T17:14:17.524Z,31.89
2019-04-10T17:19:19.888Z,32.18
2019-04-10T17:24:22.954Z,32.45
2019-04-10T17:29:25.299Z,32.65
2019-04-10T17:34:27.479Z,32.64
2019-04-10T17:39:29.552Z,32.95
2019-04-10T17:44:31.861Z,33.27
2019-04-10T17:49:34.041Z,33.56
2019-04-10T17:54:36.681Z,33.68
2019-04-10T17:59:38.958Z,33.82
2019-04-10T18:04:42.151Z,34.02
2019-04-10T18:09:44.430Z,34.32
2019-04-10T18:14:47.168Z,34.57
2019-04-10T18:19:50.252Z,34.74
2019-04-10T18:24:53.672Z,35.09
2019-04-10T18:29:55.937Z,35.24
2019-04-10T18:34:58.292Z,35.35
2019-04-10T18:40:01.709Z,35.44
2019-04-10T18:45:05.693Z,35.67
2019-04-10T18:50:08.102Z,35.83
2019-04-10T18:55:10.197Z,35.94
2019-04-10T19:00:34.477Z,36.21
2019-04-10T19:05:40.265Z,36.57
2019-04-10T19:10:43.254Z,36.61
2019-04-10T19:15:46.887Z,36.88
2019-04-10T19:21:08.617Z,36.97
2019-04-10T19:26:13.858Z,37.13
2019-04-10T19:31:20.059Z,37.28
2019-04-10T19:36:23.761Z,37.37
2019-04-10T19:41:32.814Z,37.47
2019-04-10T19:46:31.358Z,37.66
2019-04-10T19:51:34.382Z,37.72
2019-04-10T19:56:36.978Z,37.94
2019-04-10T20:01:39.579Z,38.02
2019-04-10T20:06:42.700Z,38.14
2019-04-10T20:11:52.070Z,38.33
2019-04-10T20:16:49.462Z,38.47
2019-04-10T20:21:52.412Z,38.61
2019-04-10T20:26:55.838Z,38.61
2019-04-10T20:31:58.586Z,38.63
2019-04-10T20:37:05.956Z,38.65
2019-04-10T20:42:05.827Z,38.68
2019-04-10T20:47:08.803Z,38.65
2019-04-10T20:52:11.965Z,38.88
2019-04-10T20:57:15.148Z,38.98
2019-04-10T21:02:18.080Z,39.17
2019-04-10T21:07:21.338Z,39.12
2019-04-10T21:12:23.829Z,39.16
2019-04-10T21:17:26.073Z,39.10
2019-04-10T21:22:28.674Z,39.18
2019-04-10T21:27:33.542Z,39.32
2019-04-10T21:32:56.737Z,39.36
2019-04-10T21:37:59.209Z,39.55
2019-04-10T21:43:01.614Z,39.81
2019-04-10T21:48:04.192Z,39.94
2019-04-10T21:53:06.353Z,40.10
2019-04-10T21:58:08.429Z,40.21
2019-04-10T22:03:11.235Z,40.41
2019-04-10T22:08:29.518Z,40.43
2019-04-10T22:13:32.286Z,40.51
2019-04-10T22:18:34.472Z,40.68
2019-04-10T22:23:36.563Z,40.79
2019-04-10T22:28:39.377Z,40.84
2019-04-10T22:33:42.569Z,40.91
2019-04-10T22:38:44.795Z,41.08
2019-04-10T22:43:47.050Z,41.18
2019-04-10T22:48:50.055Z,41.29
2019-04-10T22:53:53.424Z,41.42
2019-04-10T22:58:55.687Z,41.64
2019-04-10T23:03:57.746Z,41.79
2019-04-10T23:09:00.105Z,41.93
2019-04-10T23:14:02.655Z,42.03
2019-04-10T23:19:05.719Z,42.02
2019-04-10T23:24:07.826Z,42.09
2019-04-10T23:29:09.939Z,42.22
2019-04-10T23:34:12.545Z,42.33
2019-04-10T23:39:14.739Z,42.45
2019-04-10T23:44:16.813Z,42.42
2019-04-10T23:49:19.522Z,42.45
2019-04-10T23:54:21.900Z,42.63
2019-04-10T23:59:23.962Z,42.74
